<?xml version="1.0" encoding="UTF-8" standalone="no" ?>
<gpx xmlns="http://www.topografix.com/GPX/1/1" xmlns:xsi="http://www.w3.org/2001/XMLSchema-instance" xsi:schemaLocation="http://www.topografix.com/GPX/1/1 http://www.topografix.com/GPX/1/1/gpx.xsd" version="1.1" creator="VisuGPX - https://www.visugpx.com">
  <metadata>
    <name>Col de Malval - 9km / 400m D </name>
    <desc><![CDATA[Trail de 9km dans les Monts du Lyonnais, entre le col de Malval et le village d\'Yzeron. Le dénivelé positif cumulé est d\'environ 400m.]]></desc>
  </metadata>
  <trk>
    <name><![CDATA[Col de Malval 9km - 400D]]></name>
    <trkseg>
      <trkpt lat="45.74157" lon="4.63103">
        <ele>491.5</ele>
        <time>2015-05-04T18:08:21.000Z</time>
      </trkpt>
      <trkpt lat="45.74151" lon="4.63105">
        <ele>491.1</ele>
        <time>2015-05-04T18:08:24.087Z</time>
      </trkpt>
      <trkpt lat="45.74135" lon="4.63103">
        <ele>491.3</ele>
        <time>2015-05-04T18:08:32.136Z</time>
      </trkpt>
      <trkpt lat="45.74088" lon="4.63106">
        <ele>493.2</ele>
        <time>2015-05-04T18:08:55.715Z</time>
      </trkpt>
      <trkpt lat="45.74045" lon="4.63105">
        <ele>497.9</ele>
        <time>2015-05-04T18:09:17.269Z</time>
      </trkpt>
      <trkpt lat="45.73991" lon="4.63091">
        <ele>505.2</ele>
        <time>2015-05-04T18:09:44.772Z</time>
      </trkpt>
      <trkpt lat="45.73947" lon="4.63097">
        <ele>512</ele>
        <time>2015-05-04T18:10:06.924Z</time>
      </trkpt>
      <trkpt lat="45.73941" lon="4.63096">
        <ele>513.6</ele>
        <time>2015-05-04T18:10:09.951Z</time>
      </trkpt>
      <trkpt lat="45.7396" lon="4.63051">
        <ele>517.2</ele>
        <time>2015-05-04T18:10:28.343Z</time>
      </trkpt>
      <trkpt lat="45.73986" lon="4.63018">
        <ele>521.7</ele>
        <time>2015-05-04T18:10:45.749Z</time>
      </trkpt>
      <trkpt lat="45.74032" lon="4.62934">
        <ele>536.8</ele>
        <time>2015-05-04T18:11:23.088Z</time>
      </trkpt>
      <trkpt lat="45.74045" lon="4.62919">
        <ele>539.2</ele>
        <time>2015-05-04T18:11:31.452Z</time>
      </trkpt>
      <trkpt lat="45.74099" lon="4.62871">
        <ele>546.7</ele>
        <time>2015-05-04T18:12:03.298Z</time>
      </trkpt>
      <trkpt lat="45.74058" lon="4.62907">
        <ele>540.8</ele>
        <time>2015-05-04T18:12:27.396Z</time>
      </trkpt>
      <trkpt lat="45.74053" lon="4.62906">
        <ele>542</ele>
        <time>2015-05-04T18:12:29.926Z</time>
      </trkpt>
      <trkpt lat="45.74031" lon="4.62914">
        <ele>543.4</ele>
        <time>2015-05-04T18:12:41.301Z</time>
      </trkpt>
      <trkpt lat="45.74024" lon="4.6291">
        <ele>546.6</ele>
        <time>2015-05-04T18:12:45.078Z</time>
      </trkpt>
      <trkpt lat="45.73977" lon="4.62916">
        <ele>558</ele>
        <time>2015-05-04T18:13:08.727Z</time>
      </trkpt>
      <trkpt lat="45.73948" lon="4.6291">
        <ele>562.5</ele>
        <time>2015-05-04T18:13:23.412Z</time>
      </trkpt>
      <trkpt lat="45.73863" lon="4.62834">
        <ele>588.8</ele>
        <time>2015-05-04T18:14:13.622Z</time>
      </trkpt>
      <trkpt lat="45.73848" lon="4.62824">
        <ele>593.1</ele>
        <time>2015-05-04T18:14:21.913Z</time>
      </trkpt>
      <trkpt lat="45.73836" lon="4.62821">
        <ele>594.9</ele>
        <time>2015-05-04T18:14:28.018Z</time>
      </trkpt>
      <trkpt lat="45.73818" lon="4.62822">
        <ele>597.1</ele>
        <time>2015-05-04T18:14:37.046Z</time>
      </trkpt>
      <trkpt lat="45.73781" lon="4.62837">
        <ele>599.4</ele>
        <time>2015-05-04T18:14:56.317Z</time>
      </trkpt>
      <trkpt lat="45.7377" lon="4.62839">
        <ele>600.7</ele>
        <time>2015-05-04T18:15:01.874Z</time>
      </trkpt>
      <trkpt lat="45.73731" lon="4.62834">
        <ele>608.6</ele>
        <time>2015-05-04T18:15:21.498Z</time>
      </trkpt>
      <trkpt lat="45.73715" lon="4.62843">
        <ele>609.5</ele>
        <time>2015-05-04T18:15:30.112Z</time>
      </trkpt>
      <trkpt lat="45.73696" lon="4.62867">
        <ele>609.9</ele>
        <time>2015-05-04T18:15:42.805Z</time>
      </trkpt>
      <trkpt lat="45.73691" lon="4.62878">
        <ele>610.4</ele>
        <time>2015-05-04T18:15:47.396Z</time>
      </trkpt>
      <trkpt lat="45.73685" lon="4.62911">
        <ele>609.5</ele>
        <time>2015-05-04T18:15:59.321Z</time>
      </trkpt>
      <trkpt lat="45.73685" lon="4.62947">
        <ele>607.2</ele>
        <time>2015-05-04T18:16:11.910Z</time>
      </trkpt>
      <trkpt lat="45.73679" lon="4.62964">
        <ele>607.5</ele>
        <time>2015-05-04T18:16:18.572Z</time>
      </trkpt>
      <trkpt lat="45.73658" lon="4.63">
        <ele>608.2</ele>
        <time>2015-05-04T18:16:34.981Z</time>
      </trkpt>
      <trkpt lat="45.73649" lon="4.62992">
        <ele>610.4</ele>
        <time>2015-05-04T18:16:40.289Z</time>
      </trkpt>
      <trkpt lat="45.73633" lon="4.62968">
        <ele>615.5</ele>
        <time>2015-05-04T18:16:51.897Z</time>
      </trkpt>
      <trkpt lat="45.73613" lon="4.62932">
        <ele>623.9</ele>
        <time>2015-05-04T18:17:07.989Z</time>
      </trkpt>
      <trkpt lat="45.73604" lon="4.62908">
        <ele>629.4</ele>
        <time>2015-05-04T18:17:17.517Z</time>
      </trkpt>
      <trkpt lat="45.73594" lon="4.62892">
        <ele>633.8</ele>
        <time>2015-05-04T18:17:25.029Z</time>
      </trkpt>
      <trkpt lat="45.7354" lon="4.6285">
        <ele>651.1</ele>
        <time>2015-05-04T18:17:55.821Z</time>
      </trkpt>
      <trkpt lat="45.73535" lon="4.62849">
        <ele>651.9</ele>
        <time>2015-05-04T18:17:58.351Z</time>
      </trkpt>
      <trkpt lat="45.73569" lon="4.62831">
        <ele>652.6</ele>
        <time>2015-05-04T18:18:16.517Z</time>
      </trkpt>
      <trkpt lat="45.73606" lon="4.62798">
        <ele>653.8</ele>
        <time>2015-05-04T18:18:38.358Z</time>
      </trkpt>
      <trkpt lat="45.73653" lon="4.62766">
        <ele>652</ele>
        <time>2015-05-04T18:19:04.436Z</time>
      </trkpt>
      <trkpt lat="45.73668" lon="4.62747">
        <ele>653.1</ele>
        <time>2015-05-04T18:19:14.469Z</time>
      </trkpt>
      <trkpt lat="45.73682" lon="4.62711">
        <ele>655.8</ele>
        <time>2015-05-04T18:19:28.881Z</time>
      </trkpt>
      <trkpt lat="45.73706" lon="4.62686">
        <ele>653.9</ele>
        <time>2015-05-04T18:19:43.751Z</time>
      </trkpt>
      <trkpt lat="45.73723" lon="4.62674">
        <ele>652.8</ele>
        <time>2015-05-04T18:19:53.248Z</time>
      </trkpt>
      <trkpt lat="45.73748" lon="4.62662">
        <ele>653.1</ele>
        <time>2015-05-04T18:20:06.462Z</time>
      </trkpt>
      <trkpt lat="45.73794" lon="4.62659">
        <ele>652.9</ele>
        <time>2015-05-04T18:20:29.540Z</time>
      </trkpt>
      <trkpt lat="45.73823" lon="4.62664">
        <ele>650.8</ele>
        <time>2015-05-04T18:20:44.179Z</time>
      </trkpt>
      <trkpt lat="45.73834" lon="4.6266">
        <ele>651.9</ele>
        <time>2015-05-04T18:20:49.867Z</time>
      </trkpt>
      <trkpt lat="45.7384" lon="4.62648">
        <ele>654.6</ele>
        <time>2015-05-04T18:20:55.029Z</time>
      </trkpt>
      <trkpt lat="45.73846" lon="4.62614">
        <ele>660.7</ele>
        <time>2015-05-04T18:21:07.292Z</time>
      </trkpt>
      <trkpt lat="45.73849" lon="4.62576">
        <ele>665.5</ele>
        <time>2015-05-04T18:21:20.665Z</time>
      </trkpt>
      <trkpt lat="45.73845" lon="4.62543">
        <ele>670.4</ele>
        <time>2015-05-04T18:21:32.377Z</time>
      </trkpt>
      <trkpt lat="45.73852" lon="4.62507">
        <ele>672.8</ele>
        <time>2015-05-04T18:21:45.445Z</time>
      </trkpt>
      <trkpt lat="45.73854" lon="4.62459">
        <ele>676.3</ele>
        <time>2015-05-04T18:22:02.259Z</time>
      </trkpt>
      <trkpt lat="45.7385" lon="4.62393">
        <ele>679.9</ele>
        <time>2015-05-04T18:22:25.425Z</time>
      </trkpt>
      <trkpt lat="45.73841" lon="4.62334">
        <ele>683.2</ele>
        <time>2015-05-04T18:22:46.543Z</time>
      </trkpt>
      <trkpt lat="45.73822" lon="4.62179">
        <ele>688.5</ele>
        <time>2015-05-04T18:23:41.573Z</time>
      </trkpt>
      <trkpt lat="45.73816" lon="4.62093">
        <ele>688.6</ele>
        <time>2015-05-04T18:24:11.795Z</time>
      </trkpt>
      <trkpt lat="45.73821" lon="4.62047">
        <ele>686.6</ele>
        <time>2015-05-04T18:24:28.074Z</time>
      </trkpt>
      <trkpt lat="45.73815" lon="4.61968">
        <ele>689.3</ele>
        <time>2015-05-04T18:24:55.862Z</time>
      </trkpt>
      <trkpt lat="45.73816" lon="4.61959">
        <ele>689</ele>
        <time>2015-05-04T18:24:59.049Z</time>
      </trkpt>
      <trkpt lat="45.7383" lon="4.61902">
        <ele>684.9</ele>
        <time>2015-05-04T18:25:20.180Z</time>
      </trkpt>
      <trkpt lat="45.73818" lon="4.61883">
        <ele>688</ele>
        <time>2015-05-04T18:25:29.142Z</time>
      </trkpt>
      <trkpt lat="45.73792" lon="4.61824">
        <ele>696.9</ele>
        <time>2015-05-04T18:25:53.544Z</time>
      </trkpt>
      <trkpt lat="45.73782" lon="4.61811">
        <ele>700.6</ele>
        <time>2015-05-04T18:26:00.310Z</time>
      </trkpt>
      <trkpt lat="45.73762" lon="4.61798">
        <ele>706.9</ele>
        <time>2015-05-04T18:26:11.316Z</time>
      </trkpt>
      <trkpt lat="45.73754" lon="4.61789">
        <ele>709.5</ele>
        <time>2015-05-04T18:26:16.413Z</time>
      </trkpt>
      <trkpt lat="45.7375" lon="4.61776">
        <ele>711.1</ele>
        <time>2015-05-04T18:26:21.381Z</time>
      </trkpt>
      <trkpt lat="45.73745" lon="4.61729">
        <ele>716.1</ele>
        <time>2015-05-04T18:26:38.006Z</time>
      </trkpt>
      <trkpt lat="45.73739" lon="4.61717">
        <ele>718.1</ele>
        <time>2015-05-04T18:26:43.168Z</time>
      </trkpt>
      <trkpt lat="45.73708" lon="4.61691">
        <ele>724.8</ele>
        <time>2015-05-04T18:27:01.169Z</time>
      </trkpt>
      <trkpt lat="45.73675" lon="4.61654">
        <ele>728.3</ele>
        <time>2015-05-04T18:27:22.168Z</time>
      </trkpt>
      <trkpt lat="45.73668" lon="4.6164">
        <ele>729</ele>
        <time>2015-05-04T18:27:28.191Z</time>
      </trkpt>
      <trkpt lat="45.73661" lon="4.61639">
        <ele>728.4</ele>
        <time>2015-05-04T18:27:31.717Z</time>
      </trkpt>
      <trkpt lat="45.7364" lon="4.61628">
        <ele>726.9</ele>
        <time>2015-05-04T18:27:42.923Z</time>
      </trkpt>
      <trkpt lat="45.7361" lon="4.61607">
        <ele>724.1</ele>
        <time>2015-05-04T18:27:59.656Z</time>
      </trkpt>
      <trkpt lat="45.73599" lon="4.61592">
        <ele>723.3</ele>
        <time>2015-05-04T18:28:07.266Z</time>
      </trkpt>
      <trkpt lat="45.73586" lon="4.61563">
        <ele>722.2</ele>
        <time>2015-05-04T18:28:19.320Z</time>
      </trkpt>
      <trkpt lat="45.73577" lon="4.6153">
        <ele>721.1</ele>
        <time>2015-05-04T18:28:31.710Z</time>
      </trkpt>
      <trkpt lat="45.73572" lon="4.61497">
        <ele>720.4</ele>
        <time>2015-05-04T18:28:43.519Z</time>
      </trkpt>
      <trkpt lat="45.73566" lon="4.61396">
        <ele>718</ele>
        <time>2015-05-04T18:29:18.966Z</time>
      </trkpt>
      <trkpt lat="45.73561" lon="4.61368">
        <ele>717.2</ele>
        <time>2015-05-04T18:29:29.073Z</time>
      </trkpt>
      <trkpt lat="45.73553" lon="4.61347">
        <ele>716.7</ele>
        <time>2015-05-04T18:29:37.440Z</time>
      </trkpt>
      <trkpt lat="45.73527" lon="4.61301">
        <ele>712.2</ele>
        <time>2015-05-04T18:29:58.142Z</time>
      </trkpt>
      <trkpt lat="45.73516" lon="4.61294">
        <ele>709.6</ele>
        <time>2015-05-04T18:30:04.174Z</time>
      </trkpt>
      <trkpt lat="45.73513" lon="4.61281">
        <ele>710.3</ele>
        <time>2015-05-04T18:30:08.962Z</time>
      </trkpt>
      <trkpt lat="45.73477" lon="4.61204">
        <ele>706.4</ele>
        <time>2015-05-04T18:30:41.375Z</time>
      </trkpt>
      <trkpt lat="45.73472" lon="4.61187">
        <ele>706.2</ele>
        <time>2015-05-04T18:30:47.827Z</time>
      </trkpt>
      <trkpt lat="45.73467" lon="4.61116">
        <ele>708.2</ele>
        <time>2015-05-04T18:31:12.782Z</time>
      </trkpt>
      <trkpt lat="45.73461" lon="4.61094">
        <ele>708.3</ele>
        <time>2015-05-04T18:31:21.042Z</time>
      </trkpt>
      <trkpt lat="45.73456" lon="4.61086">
        <ele>708.3</ele>
        <time>2015-05-04T18:31:24.798Z</time>
      </trkpt>
      <trkpt lat="45.7345" lon="4.6108">
        <ele>708.7</ele>
        <time>2015-05-04T18:31:28.465Z</time>
      </trkpt>
      <trkpt lat="45.73442" lon="4.61079">
        <ele>708.8</ele>
        <time>2015-05-04T18:31:32.490Z</time>
      </trkpt>
      <trkpt lat="45.73422" lon="4.6109">
        <ele>708.7</ele>
        <time>2015-05-04T18:31:43.226Z</time>
      </trkpt>
      <trkpt lat="45.73418" lon="4.6109">
        <ele>709</ele>
        <time>2015-05-04T18:31:45.230Z</time>
      </trkpt>
      <trkpt lat="45.73373" lon="4.61064">
        <ele>715.7</ele>
        <time>2015-05-04T18:32:09.547Z</time>
      </trkpt>
      <trkpt lat="45.73349" lon="4.61056">
        <ele>715.6</ele>
        <time>2015-05-04T18:32:21.896Z</time>
      </trkpt>
      <trkpt lat="45.73331" lon="4.61046">
        <ele>715.4</ele>
        <time>2015-05-04T18:32:31.571Z</time>
      </trkpt>
      <trkpt lat="45.73316" lon="4.61032">
        <ele>715.2</ele>
        <time>2015-05-04T18:32:40.542Z</time>
      </trkpt>
      <trkpt lat="45.73298" lon="4.61006">
        <ele>714.7</ele>
        <time>2015-05-04T18:32:53.350Z</time>
      </trkpt>
      <trkpt lat="45.73287" lon="4.60977">
        <ele>715</ele>
        <time>2015-05-04T18:33:04.893Z</time>
      </trkpt>
      <trkpt lat="45.73268" lon="4.60905">
        <ele>718.4</ele>
        <time>2015-05-04T18:33:31.813Z</time>
      </trkpt>
      <trkpt lat="45.73253" lon="4.60836">
        <ele>721.6</ele>
        <time>2015-05-04T18:33:57.087Z</time>
      </trkpt>
      <trkpt lat="45.73236" lon="4.60785">
        <ele>725.3</ele>
        <time>2015-05-04T18:34:16.853Z</time>
      </trkpt>
      <trkpt lat="45.73227" lon="4.60769">
        <ele>726.1</ele>
        <time>2015-05-04T18:34:24.040Z</time>
      </trkpt>
      <trkpt lat="45.73205" lon="4.60739">
        <ele>727.7</ele>
        <time>2015-05-04T18:34:39.260Z</time>
      </trkpt>
      <trkpt lat="45.73175" lon="4.60681">
        <ele>734.2</ele>
        <time>2015-05-04T18:35:04.509Z</time>
      </trkpt>
      <trkpt lat="45.73149" lon="4.60643">
        <ele>738.4</ele>
        <time>2015-05-04T18:35:23.121Z</time>
      </trkpt>
      <trkpt lat="45.73125" lon="4.60613">
        <ele>741.7</ele>
        <time>2015-05-04T18:35:39.082Z</time>
      </trkpt>
      <trkpt lat="45.73107" lon="4.60586">
        <ele>744.3</ele>
        <time>2015-05-04T18:35:52.141Z</time>
      </trkpt>
      <trkpt lat="45.73102" lon="4.60574">
        <ele>746.2</ele>
        <time>2015-05-04T18:35:57.029Z</time>
      </trkpt>
      <trkpt lat="45.73065" lon="4.60525">
        <ele>750.3</ele>
        <time>2015-05-04T18:36:22.278Z</time>
      </trkpt>
      <trkpt lat="45.73049" lon="4.60515">
        <ele>751</ele>
        <time>2015-05-04T18:36:31.026Z</time>
      </trkpt>
      <trkpt lat="45.73041" lon="4.60515">
        <ele>751.7</ele>
        <time>2015-05-04T18:36:35.036Z</time>
      </trkpt>
      <trkpt lat="45.73032" lon="4.60525">
        <ele>751.8</ele>
        <time>2015-05-04T18:36:40.744Z</time>
      </trkpt>
      <trkpt lat="45.73002" lon="4.60575">
        <ele>757.8</ele>
        <time>2015-05-04T18:37:03.806Z</time>
      </trkpt>
      <trkpt lat="45.73" lon="4.60581">
        <ele>758.1</ele>
        <time>2015-05-04T18:37:06.132Z</time>
      </trkpt>
      <trkpt lat="45.73003" lon="4.60595">
        <ele>757.2</ele>
        <time>2015-05-04T18:37:11.254Z</time>
      </trkpt>
      <trkpt lat="45.72999" lon="4.6058">
        <ele>758.4</ele>
        <time>2015-05-04T18:37:16.870Z</time>
      </trkpt>
      <trkpt lat="45.72995" lon="4.60577">
        <ele>759.8</ele>
        <time>2015-05-04T18:37:19.133Z</time>
      </trkpt>
      <trkpt lat="45.72976" lon="4.60519">
        <ele>766.9</ele>
        <time>2015-05-04T18:37:41.541Z</time>
      </trkpt>
      <trkpt lat="45.72959" lon="4.60478">
        <ele>772.7</ele>
        <time>2015-05-04T18:37:58.220Z</time>
      </trkpt>
      <trkpt lat="45.72934" lon="4.6044">
        <ele>780.8</ele>
        <time>2015-05-04T18:38:16.485Z</time>
      </trkpt>
      <trkpt lat="45.72896" lon="4.60402">
        <ele>790.5</ele>
        <time>2015-05-04T18:38:39.709Z</time>
      </trkpt>
      <trkpt lat="45.72838" lon="4.60338">
        <ele>801.3</ele>
        <time>2015-05-04T18:39:16.397Z</time>
      </trkpt>
      <trkpt lat="45.72803" lon="4.60291">
        <ele>807.6</ele>
        <time>2015-05-04T18:39:40.437Z</time>
      </trkpt>
      <trkpt lat="45.72763" lon="4.60229">
        <ele>813.4</ele>
        <time>2015-05-04T18:40:09.968Z</time>
      </trkpt>
      <trkpt lat="45.72731" lon="4.60193">
        <ele>817.1</ele>
        <time>2015-05-04T18:40:30.358Z</time>
      </trkpt>
      <trkpt lat="45.72727" lon="4.60184">
        <ele>818.1</ele>
        <time>2015-05-04T18:40:34.090Z</time>
      </trkpt>
      <trkpt lat="45.7273" lon="4.60162">
        <ele>820.1</ele>
        <time>2015-05-04T18:40:41.930Z</time>
      </trkpt>
      <trkpt lat="45.72735" lon="4.60147">
        <ele>821.3</ele>
        <time>2015-05-04T18:40:47.744Z</time>
      </trkpt>
      <trkpt lat="45.72751" lon="4.60114">
        <ele>824.7</ele>
        <time>2015-05-04T18:41:01.798Z</time>
      </trkpt>
      <trkpt lat="45.72763" lon="4.60098">
        <ele>825.9</ele>
        <time>2015-05-04T18:41:10.013Z</time>
      </trkpt>
      <trkpt lat="45.72777" lon="4.60085">
        <ele>826.8</ele>
        <time>2015-05-04T18:41:18.374Z</time>
      </trkpt>
      <trkpt lat="45.728" lon="4.60085">
        <ele>826</ele>
        <time>2015-05-04T18:41:29.901Z</time>
      </trkpt>
      <trkpt lat="45.72833" lon="4.60082">
        <ele>825.2</ele>
        <time>2015-05-04T18:41:46.473Z</time>
      </trkpt>
      <trkpt lat="45.72847" lon="4.60074">
        <ele>824.7</ele>
        <time>2015-05-04T18:41:54.027Z</time>
      </trkpt>
      <trkpt lat="45.72863" lon="4.60068">
        <ele>824</ele>
        <time>2015-05-04T18:42:02.316Z</time>
      </trkpt>
      <trkpt lat="45.7291" lon="4.60057">
        <ele>822.2</ele>
        <time>2015-05-04T18:42:26.184Z</time>
      </trkpt>
      <trkpt lat="45.72949" lon="4.60042">
        <ele>820.8</ele>
        <time>2015-05-04T18:42:46.422Z</time>
      </trkpt>
      <trkpt lat="45.72979" lon="4.60046">
        <ele>816.3</ele>
        <time>2015-05-04T18:43:01.522Z</time>
      </trkpt>
      <trkpt lat="45.72993" lon="4.60052">
        <ele>814.8</ele>
        <time>2015-05-04T18:43:08.846Z</time>
      </trkpt>
      <trkpt lat="45.73011" lon="4.60065">
        <ele>813.5</ele>
        <time>2015-05-04T18:43:18.948Z</time>
      </trkpt>
      <trkpt lat="45.7304" lon="4.60094">
        <ele>812.4</ele>
        <time>2015-05-04T18:43:36.671Z</time>
      </trkpt>
      <trkpt lat="45.73106" lon="4.60177">
        <ele>806</ele>
        <time>2015-05-04T18:44:20.679Z</time>
      </trkpt>
      <trkpt lat="45.73152" lon="4.6027">
        <ele>798.8</ele>
        <time>2015-05-04T18:45:00.545Z</time>
      </trkpt>
      <trkpt lat="45.73178" lon="4.60316">
        <ele>799.2</ele>
        <time>2015-05-04T18:45:21.248Z</time>
      </trkpt>
      <trkpt lat="45.73199" lon="4.60339">
        <ele>802.5</ele>
        <time>2015-05-04T18:45:34.495Z</time>
      </trkpt>
      <trkpt lat="45.73221" lon="4.60358">
        <ele>806.1</ele>
        <time>2015-05-04T18:45:47.368Z</time>
      </trkpt>
      <trkpt lat="45.73234" lon="4.60379">
        <ele>807.6</ele>
        <time>2015-05-04T18:45:57.186Z</time>
      </trkpt>
      <trkpt lat="45.73244" lon="4.60388">
        <ele>809.4</ele>
        <time>2015-05-04T18:46:03.104Z</time>
      </trkpt>
      <trkpt lat="45.73269" lon="4.60399">
        <ele>814.2</ele>
        <time>2015-05-04T18:46:16.211Z</time>
      </trkpt>
      <trkpt lat="45.7329" lon="4.60415">
        <ele>816.9</ele>
        <time>2015-05-04T18:46:28.131Z</time>
      </trkpt>
      <trkpt lat="45.73301" lon="4.60426">
        <ele>817</ele>
        <time>2015-05-04T18:46:34.854Z</time>
      </trkpt>
      <trkpt lat="45.73322" lon="4.6044">
        <ele>817.9</ele>
        <time>2015-05-04T18:46:46.462Z</time>
      </trkpt>
      <trkpt lat="45.73337" lon="4.60447">
        <ele>819</ele>
        <time>2015-05-04T18:46:54.368Z</time>
      </trkpt>
      <trkpt lat="45.73403" lon="4.60465">
        <ele>820.1</ele>
        <time>2015-05-04T18:47:28.040Z</time>
      </trkpt>
      <trkpt lat="45.73428" lon="4.60464">
        <ele>821.1</ele>
        <time>2015-05-04T18:47:40.574Z</time>
      </trkpt>
      <trkpt lat="45.73453" lon="4.60458">
        <ele>822.1</ele>
        <time>2015-05-04T18:47:53.278Z</time>
      </trkpt>
      <trkpt lat="45.73475" lon="4.60446">
        <ele>822.6</ele>
        <time>2015-05-04T18:48:05.076Z</time>
      </trkpt>
      <trkpt lat="45.73518" lon="4.60444">
        <ele>819.1</ele>
        <time>2015-05-04T18:48:26.638Z</time>
      </trkpt>
      <trkpt lat="45.7353" lon="4.60445">
        <ele>817.7</ele>
        <time>2015-05-04T18:48:32.662Z</time>
      </trkpt>
      <trkpt lat="45.7354" lon="4.60451">
        <ele>815.7</ele>
        <time>2015-05-04T18:48:38.095Z</time>
      </trkpt>
      <trkpt lat="45.73557" lon="4.60456">
        <ele>813.2</ele>
        <time>2015-05-04T18:48:46.793Z</time>
      </trkpt>
      <trkpt lat="45.73572" lon="4.60456">
        <ele>812.2</ele>
        <time>2015-05-04T18:48:54.311Z</time>
      </trkpt>
      <trkpt lat="45.73589" lon="4.60462">
        <ele>809.8</ele>
        <time>2015-05-04T18:49:03.086Z</time>
      </trkpt>
      <trkpt lat="45.73608" lon="4.60463">
        <ele>807.4</ele>
        <time>2015-05-04T18:49:12.615Z</time>
      </trkpt>
      <trkpt lat="45.73624" lon="4.6046">
        <ele>806.7</ele>
        <time>2015-05-04T18:49:20.702Z</time>
      </trkpt>
      <trkpt lat="45.73641" lon="4.60453">
        <ele>806.3</ele>
        <time>2015-05-04T18:49:29.567Z</time>
      </trkpt>
      <trkpt lat="45.73666" lon="4.60436">
        <ele>806.6</ele>
        <time>2015-05-04T18:49:43.435Z</time>
      </trkpt>
      <trkpt lat="45.73676" lon="4.60433">
        <ele>806.6</ele>
        <time>2015-05-04T18:49:48.556Z</time>
      </trkpt>
      <trkpt lat="45.7368" lon="4.60437">
        <ele>806.2</ele>
        <time>2015-05-04T18:49:51.000Z</time>
      </trkpt>
      <trkpt lat="45.73683" lon="4.60446">
        <ele>805.4</ele>
        <time>2015-05-04T18:49:54.488Z</time>
      </trkpt>
      <trkpt lat="45.73702" lon="4.6046">
        <ele>804.4</ele>
        <time>2015-05-04T18:50:05.195Z</time>
      </trkpt>
      <trkpt lat="45.73725" lon="4.60443">
        <ele>805.2</ele>
        <time>2015-05-04T18:50:18.165Z</time>
      </trkpt>
      <trkpt lat="45.7375" lon="4.60418">
        <ele>807</ele>
        <time>2015-05-04T18:50:33.443Z</time>
      </trkpt>
      <trkpt lat="45.73769" lon="4.60387">
        <ele>809.5</ele>
        <time>2015-05-04T18:50:47.872Z</time>
      </trkpt>
      <trkpt lat="45.73776" lon="4.60366">
        <ele>810.8</ele>
        <time>2015-05-04T18:50:56.010Z</time>
      </trkpt>
      <trkpt lat="45.73789" lon="4.60283">
        <ele>815.4</ele>
        <time>2015-05-04T18:51:25.756Z</time>
      </trkpt>
      <trkpt lat="45.73791" lon="4.60257">
        <ele>816.3</ele>
        <time>2015-05-04T18:51:34.903Z</time>
      </trkpt>
      <trkpt lat="45.73795" lon="4.60243">
        <ele>816.4</ele>
        <time>2015-05-04T18:51:40.193Z</time>
      </trkpt>
      <trkpt lat="45.73808" lon="4.60226">
        <ele>816.1</ele>
        <time>2015-05-04T18:51:49.013Z</time>
      </trkpt>
      <trkpt lat="45.73813" lon="4.60217">
        <ele>816.1</ele>
        <time>2015-05-04T18:51:53.036Z</time>
      </trkpt>
      <trkpt lat="45.73833" lon="4.60232">
        <ele>817</ele>
        <time>2015-05-04T18:52:04.349Z</time>
      </trkpt>
      <trkpt lat="45.73867" lon="4.60247">
        <ele>819.4</ele>
        <time>2015-05-04T18:52:22.178Z</time>
      </trkpt>
      <trkpt lat="45.73876" lon="4.60253">
        <ele>820.1</ele>
        <time>2015-05-04T18:52:27.153Z</time>
      </trkpt>
      <trkpt lat="45.73931" lon="4.60294">
        <ele>823.2</ele>
        <time>2015-05-04T18:52:58.223Z</time>
      </trkpt>
      <trkpt lat="45.74003" lon="4.60342">
        <ele>822.9</ele>
        <time>2015-05-04T18:53:38.021Z</time>
      </trkpt>
      <trkpt lat="45.74025" lon="4.6036">
        <ele>821.3</ele>
        <time>2015-05-04T18:53:50.717Z</time>
      </trkpt>
      <trkpt lat="45.74036" lon="4.60362">
        <ele>820.1</ele>
        <time>2015-05-04T18:53:56.274Z</time>
      </trkpt>
      <trkpt lat="45.74056" lon="4.60354">
        <ele>818.4</ele>
        <time>2015-05-04T18:54:06.681Z</time>
      </trkpt>
      <trkpt lat="45.74073" lon="4.60359">
        <ele>814.4</ele>
        <time>2015-05-04T18:54:15.379Z</time>
      </trkpt>
      <trkpt lat="45.74089" lon="4.60369">
        <ele>810.1</ele>
        <time>2015-05-04T18:54:24.127Z</time>
      </trkpt>
      <trkpt lat="45.74119" lon="4.60364">
        <ele>801.9</ele>
        <time>2015-05-04T18:54:39.264Z</time>
      </trkpt>
      <trkpt lat="45.74137" lon="4.60378">
        <ele>796.3</ele>
        <time>2015-05-04T18:54:49.528Z</time>
      </trkpt>
      <trkpt lat="45.74154" lon="4.60399">
        <ele>790.6</ele>
        <time>2015-05-04T18:55:00.776Z</time>
      </trkpt>
      <trkpt lat="45.7418" lon="4.6041">
        <ele>782.2</ele>
        <time>2015-05-04T18:55:14.363Z</time>
      </trkpt>
      <trkpt lat="45.74196" lon="4.60454">
        <ele>778.8</ele>
        <time>2015-05-04T18:55:31.712Z</time>
      </trkpt>
      <trkpt lat="45.7421" lon="4.60483">
        <ele>775.9</ele>
        <time>2015-05-04T18:55:44.043Z</time>
      </trkpt>
      <trkpt lat="45.74232" lon="4.60539">
        <ele>774.8</ele>
        <time>2015-05-04T18:56:06.515Z</time>
      </trkpt>
      <trkpt lat="45.74232" lon="4.60545">
        <ele>775.7</ele>
        <time>2015-05-04T18:56:08.613Z</time>
      </trkpt>
      <trkpt lat="45.74244" lon="4.60559">
        <ele>774.5</ele>
        <time>2015-05-04T18:56:16.367Z</time>
      </trkpt>
      <trkpt lat="45.74268" lon="4.6057">
        <ele>770.6</ele>
        <time>2015-05-04T18:56:28.995Z</time>
      </trkpt>
      <trkpt lat="45.74319" lon="4.60585">
        <ele>758.9</ele>
        <time>2015-05-04T18:56:55.088Z</time>
      </trkpt>
      <trkpt lat="45.74359" lon="4.6062">
        <ele>752.3</ele>
        <time>2015-05-04T18:57:18.575Z</time>
      </trkpt>
      <trkpt lat="45.74453" lon="4.60689">
        <ele>739.9</ele>
        <time>2015-05-04T18:58:11.504Z</time>
      </trkpt>
      <trkpt lat="45.74496" lon="4.60713">
        <ele>731.2</ele>
        <time>2015-05-04T18:58:34.631Z</time>
      </trkpt>
      <trkpt lat="45.74538" lon="4.60764">
        <ele>723.1</ele>
        <time>2015-05-04T18:59:02.218Z</time>
      </trkpt>
      <trkpt lat="45.74557" lon="4.6082">
        <ele>721.6</ele>
        <time>2015-05-04T18:59:23.990Z</time>
      </trkpt>
      <trkpt lat="45.74597" lon="4.60896">
        <ele>718.3</ele>
        <time>2015-05-04T18:59:57.276Z</time>
      </trkpt>
      <trkpt lat="45.74603" lon="4.60903">
        <ele>717.6</ele>
        <time>2015-05-04T19:00:01.153Z</time>
      </trkpt>
      <trkpt lat="45.74613" lon="4.60911">
        <ele>716</ele>
        <time>2015-05-04T19:00:06.892Z</time>
      </trkpt>
      <trkpt lat="45.74606" lon="4.60895">
        <ele>715.9</ele>
        <time>2015-05-04T19:00:13.495Z</time>
      </trkpt>
      <trkpt lat="45.7464" lon="4.60971">
        <ele>718.6</ele>
        <time>2015-05-04T19:00:45.061Z</time>
      </trkpt>
      <trkpt lat="45.74664" lon="4.61012">
        <ele>720.6</ele>
        <time>2015-05-04T19:01:03.774Z</time>
      </trkpt>
      <trkpt lat="45.74699" lon="4.61059">
        <ele>723.9</ele>
        <time>2015-05-04T19:01:27.810Z</time>
      </trkpt>
      <trkpt lat="45.74745" lon="4.6111">
        <ele>729.1</ele>
        <time>2015-05-04T19:01:56.955Z</time>
      </trkpt>
      <trkpt lat="45.74769" lon="4.61143">
        <ele>732.8</ele>
        <time>2015-05-04T19:02:13.622Z</time>
      </trkpt>
      <trkpt lat="45.7479" lon="4.61187">
        <ele>731.2</ele>
        <time>2015-05-04T19:02:32.261Z</time>
      </trkpt>
      <trkpt lat="45.74798" lon="4.61193">
        <ele>730.4</ele>
        <time>2015-05-04T19:02:36.786Z</time>
      </trkpt>
      <trkpt lat="45.7479" lon="4.61187">
        <ele>731.2</ele>
        <time>2015-05-04T19:02:41.311Z</time>
      </trkpt>
      <trkpt lat="45.7477" lon="4.61231">
        <ele>726.6</ele>
        <time>2015-05-04T19:02:59.672Z</time>
      </trkpt>
      <trkpt lat="45.74752" lon="4.61257">
        <ele>725.3</ele>
        <time>2015-05-04T19:03:12.479Z</time>
      </trkpt>
      <trkpt lat="45.74721" lon="4.61314">
        <ele>722.3</ele>
        <time>2015-05-04T19:03:37.748Z</time>
      </trkpt>
      <trkpt lat="45.74702" lon="4.61352">
        <ele>718.8</ele>
        <time>2015-05-04T19:03:54.094Z</time>
      </trkpt>
      <trkpt lat="45.74682" lon="4.61397">
        <ele>712.6</ele>
        <time>2015-05-04T19:04:12.749Z</time>
      </trkpt>
      <trkpt lat="45.74662" lon="4.61422">
        <ele>710.2</ele>
        <time>2015-05-04T19:04:26.048Z</time>
      </trkpt>
      <trkpt lat="45.74619" lon="4.61457">
        <ele>704</ele>
        <time>2015-05-04T19:04:50.831Z</time>
      </trkpt>
      <trkpt lat="45.7458" lon="4.61474">
        <ele>697.4</ele>
        <time>2015-05-04T19:05:11.261Z</time>
      </trkpt>
      <trkpt lat="45.74556" lon="4.61479">
        <ele>694.8</ele>
        <time>2015-05-04T19:05:23.416Z</time>
      </trkpt>
      <trkpt lat="45.7453" lon="4.61489">
        <ele>694.3</ele>
        <time>2015-05-04T19:05:36.908Z</time>
      </trkpt>
      <trkpt lat="45.74516" lon="4.615">
        <ele>693.1</ele>
        <time>2015-05-04T19:05:44.909Z</time>
      </trkpt>
      <trkpt lat="45.74463" lon="4.61553">
        <ele>684.9</ele>
        <time>2015-05-04T19:06:17.297Z</time>
      </trkpt>
      <trkpt lat="45.74434" lon="4.6159">
        <ele>673.9</ele>
        <time>2015-05-04T19:06:36.755Z</time>
      </trkpt>
      <trkpt lat="45.7442" lon="4.61596">
        <ele>671.9</ele>
        <time>2015-05-04T19:06:44.078Z</time>
      </trkpt>
      <trkpt lat="45.74415" lon="4.61602">
        <ele>669.8</ele>
        <time>2015-05-04T19:06:47.346Z</time>
      </trkpt>
      <trkpt lat="45.74407" lon="4.61606">
        <ele>669.3</ele>
        <time>2015-05-04T19:06:51.592Z</time>
      </trkpt>
      <trkpt lat="45.74393" lon="4.61627">
        <ele>664.2</ele>
        <time>2015-05-04T19:07:01.748Z</time>
      </trkpt>
      <trkpt lat="45.74384" lon="4.61636">
        <ele>662.3</ele>
        <time>2015-05-04T19:07:07.248Z</time>
      </trkpt>
      <trkpt lat="45.74369" lon="4.61642">
        <ele>661.5</ele>
        <time>2015-05-04T19:07:15.053Z</time>
      </trkpt>
      <trkpt lat="45.74336" lon="4.61651">
        <ele>661.7</ele>
        <time>2015-05-04T19:07:31.889Z</time>
      </trkpt>
      <trkpt lat="45.74313" lon="4.61673">
        <ele>661</ele>
        <time>2015-05-04T19:07:45.747Z</time>
      </trkpt>
      <trkpt lat="45.74307" lon="4.61689">
        <ele>658.8</ele>
        <time>2015-05-04T19:07:52.098Z</time>
      </trkpt>
      <trkpt lat="45.74306" lon="4.61712">
        <ele>654.1</ele>
        <time>2015-05-04T19:08:00.156Z</time>
      </trkpt>
      <trkpt lat="45.74304" lon="4.61723">
        <ele>652.1</ele>
        <time>2015-05-04T19:08:04.130Z</time>
      </trkpt>
      <trkpt lat="45.74283" lon="4.61772">
        <ele>645.5</ele>
        <time>2015-05-04T19:08:24.237Z</time>
      </trkpt>
      <trkpt lat="45.74264" lon="4.61797">
        <ele>644</ele>
        <time>2015-05-04T19:08:37.163Z</time>
      </trkpt>
      <trkpt lat="45.74242" lon="4.61831">
        <ele>641.2</ele>
        <time>2015-05-04T19:08:53.377Z</time>
      </trkpt>
      <trkpt lat="45.74237" lon="4.61875">
        <ele>635.5</ele>
        <time>2015-05-04T19:09:08.965Z</time>
      </trkpt>
      <trkpt lat="45.74236" lon="4.61914">
        <ele>632.2</ele>
        <time>2015-05-04T19:09:22.611Z</time>
      </trkpt>
      <trkpt lat="45.74236" lon="4.61967">
        <ele>630.6</ele>
        <time>2015-05-04T19:09:41.143Z</time>
      </trkpt>
      <trkpt lat="45.74241" lon="4.62031">
        <ele>627.7</ele>
        <time>2015-05-04T19:10:03.661Z</time>
      </trkpt>
      <trkpt lat="45.74243" lon="4.62032">
        <ele>627.4</ele>
        <time>2015-05-04T19:10:04.723Z</time>
      </trkpt>
      <trkpt lat="45.7425" lon="4.62051">
        <ele>625.3</ele>
        <time>2015-05-04T19:10:12.236Z</time>
      </trkpt>
      <trkpt lat="45.74259" lon="4.62083">
        <ele>619.7</ele>
        <time>2015-05-04T19:10:24.300Z</time>
      </trkpt>
      <trkpt lat="45.74266" lon="4.62088">
        <ele>618.1</ele>
        <time>2015-05-04T19:10:28.220Z</time>
      </trkpt>
      <trkpt lat="45.7428" lon="4.62087">
        <ele>616.1</ele>
        <time>2015-05-04T19:10:35.245Z</time>
      </trkpt>
      <trkpt lat="45.74283" lon="4.62091">
        <ele>615</ele>
        <time>2015-05-04T19:10:37.299Z</time>
      </trkpt>
      <trkpt lat="45.74283" lon="4.62112">
        <ele>612.5</ele>
        <time>2015-05-04T19:10:44.642Z</time>
      </trkpt>
      <trkpt lat="45.74276" lon="4.62155">
        <ele>606.4</ele>
        <time>2015-05-04T19:11:00.081Z</time>
      </trkpt>
      <trkpt lat="45.74251" lon="4.62243">
        <ele>595.1</ele>
        <time>2015-05-04T19:11:33.304Z</time>
      </trkpt>
      <trkpt lat="45.74241" lon="4.62266">
        <ele>592</ele>
        <time>2015-05-04T19:11:42.780Z</time>
      </trkpt>
      <trkpt lat="45.74235" lon="4.62286">
        <ele>588.9</ele>
        <time>2015-05-04T19:11:50.392Z</time>
      </trkpt>
      <trkpt lat="45.7424" lon="4.62299">
        <ele>586.1</ele>
        <time>2015-05-04T19:11:55.582Z</time>
      </trkpt>
      <trkpt lat="45.7425" lon="4.62312">
        <ele>582.8</ele>
        <time>2015-05-04T19:12:02.348Z</time>
      </trkpt>
      <trkpt lat="45.7426" lon="4.62318">
        <ele>580.5</ele>
        <time>2015-05-04T19:12:07.781Z</time>
      </trkpt>
      <trkpt lat="45.74282" lon="4.62325">
        <ele>576.8</ele>
        <time>2015-05-04T19:12:19.075Z</time>
      </trkpt>
      <trkpt lat="45.74288" lon="4.62329">
        <ele>575.8</ele>
        <time>2015-05-04T19:12:22.391Z</time>
      </trkpt>
      <trkpt lat="45.74293" lon="4.62338">
        <ele>574.2</ele>
        <time>2015-05-04T19:12:26.413Z</time>
      </trkpt>
      <trkpt lat="45.74293" lon="4.62349">
        <ele>572.4</ele>
        <time>2015-05-04T19:12:30.259Z</time>
      </trkpt>
      <trkpt lat="45.74297" lon="4.6235">
        <ele>572.3</ele>
        <time>2015-05-04T19:12:32.293Z</time>
      </trkpt>
      <trkpt lat="45.74321" lon="4.62382">
        <ele>569</ele>
        <time>2015-05-04T19:12:48.721Z</time>
      </trkpt>
      <trkpt lat="45.74327" lon="4.62414">
        <ele>565.4</ele>
        <time>2015-05-04T19:13:00.307Z</time>
      </trkpt>
      <trkpt lat="45.74333" lon="4.6242">
        <ele>564.5</ele>
        <time>2015-05-04T19:13:03.973Z</time>
      </trkpt>
      <trkpt lat="45.7434" lon="4.62422">
        <ele>563</ele>
        <time>2015-05-04T19:13:07.550Z</time>
      </trkpt>
      <trkpt lat="45.74343" lon="4.62426">
        <ele>561.9</ele>
        <time>2015-05-04T19:13:09.603Z</time>
      </trkpt>
      <trkpt lat="45.74344" lon="4.6246">
        <ele>555.7</ele>
        <time>2015-05-04T19:13:21.502Z</time>
      </trkpt>
      <trkpt lat="45.74354" lon="4.62467">
        <ele>552.4</ele>
        <time>2015-05-04T19:13:27.080Z</time>
      </trkpt>
      <trkpt lat="45.74352" lon="4.62489">
        <ele>548.4</ele>
        <time>2015-05-04T19:13:34.837Z</time>
      </trkpt>
      <trkpt lat="45.74363" lon="4.62536">
        <ele>538.2</ele>
        <time>2015-05-04T19:13:52.170Z</time>
      </trkpt>
      <trkpt lat="45.74378" lon="4.6259">
        <ele>527.7</ele>
        <time>2015-05-04T19:14:12.492Z</time>
      </trkpt>
      <trkpt lat="45.74387" lon="4.62629">
        <ele>521.6</ele>
        <time>2015-05-04T19:14:26.855Z</time>
      </trkpt>
      <trkpt lat="45.744" lon="4.62657">
        <ele>515.6</ele>
        <time>2015-05-04T19:14:38.615Z</time>
      </trkpt>
      <trkpt lat="45.74411" lon="4.62702">
        <ele>507</ele>
        <time>2015-05-04T19:14:55.287Z</time>
      </trkpt>
      <trkpt lat="45.7441" lon="4.62719">
        <ele>504.5</ele>
        <time>2015-05-04T19:15:01.252Z</time>
      </trkpt>
      <trkpt lat="45.744" lon="4.62771">
        <ele>498.5</ele>
        <time>2015-05-04T19:15:20.112Z</time>
      </trkpt>
      <trkpt lat="45.74395" lon="4.62788">
        <ele>497.5</ele>
        <time>2015-05-04T19:15:26.563Z</time>
      </trkpt>
      <trkpt lat="45.74404" lon="4.62804">
        <ele>495</ele>
        <time>2015-05-04T19:15:33.749Z</time>
      </trkpt>
      <trkpt lat="45.7441" lon="4.62822">
        <ele>493.5</ele>
        <time>2015-05-04T19:15:40.724Z</time>
      </trkpt>
      <trkpt lat="45.74414" lon="4.62852">
        <ele>490.6</ele>
        <time>2015-05-04T19:15:51.403Z</time>
      </trkpt>
      <trkpt lat="45.74415" lon="4.62874">
        <ele>488.9</ele>
        <time>2015-05-04T19:15:59.111Z</time>
      </trkpt>
      <trkpt lat="45.74411" lon="4.62874">
        <ele>489.8</ele>
        <time>2015-05-04T19:16:01.116Z</time>
      </trkpt>
      <trkpt lat="45.74407" lon="4.62878">
        <ele>490.4</ele>
        <time>2015-05-04T19:16:03.561Z</time>
      </trkpt>
      <trkpt lat="45.74389" lon="4.62903">
        <ele>490.5</ele>
        <time>2015-05-04T19:16:16.123Z</time>
      </trkpt>
      <trkpt lat="45.74356" lon="4.62957">
        <ele>487.2</ele>
        <time>2015-05-04T19:16:41.223Z</time>
      </trkpt>
      <trkpt lat="45.74318" lon="4.63004">
        <ele>488.4</ele>
        <time>2015-05-04T19:17:06.378Z</time>
      </trkpt>
      <trkpt lat="45.74288" lon="4.6303">
        <ele>492.6</ele>
        <time>2015-05-04T19:17:23.948Z</time>
      </trkpt>
      <trkpt lat="45.7419" lon="4.63089">
        <ele>493.9</ele>
        <time>2015-05-04T19:18:17.220Z</time>
      </trkpt>
      <trkpt lat="45.74174" lon="4.63098">
        <ele>492.6</ele>
        <time>2015-05-04T19:18:25.834Z</time>
      </trkpt>
      <trkpt lat="45.74163" lon="4.63101">
        <ele>492.1</ele>
        <time>2015-05-04T19:18:31.446Z</time>
      </trkpt>
    </trkseg>
  </trk>
</gpx>